createdAt,value
2018-12-05T00:02:14.189Z,2.20
2018-12-05T00:04:42.598Z,2.10
2018-12-05T00:07:10.985Z,2.00
2018-12-05T00:09:39.411Z,1.90
2018-12-05T00:12:07.775Z,1.80
2018-12-05T00:14:36.204Z,1.80
2018-12-05T00:17:08.125Z,1.90
2018-12-05T00:19:39.857Z,1.90
2018-12-05T00:25:05.249Z,2.00
2018-12-05T00:27:33.636Z,2.10
2018-12-05T00:30:11.824Z,2.10
2018-12-05T00:32:40.230Z,2.20
2018-12-05T00:35:14.082Z,2.10
2018-12-05T00:37:47.922Z,2.20
2018-12-05T00:40:16.306Z,2.20
2018-12-05T00:42:44.686Z,2.30
2018-12-05T00:45:13.131Z,2.40
2018-12-05T00:47:41.572Z,2.40
2018-12-05T00:50:09.621Z,2.50
2018-12-05T00:52:38.046Z,2.50
2018-12-05T00:55:06.432Z,2.60
2018-12-05T00:57:34.837Z,2.70
2018-12-05T01:00:03.547Z,2.70
2018-12-05T01:02:35.610Z,2.70
2018-12-05T01:05:09.868Z,2.80
2018-12-05T01:07:38.278Z,2.80
2018-12-05T01:10:07.109Z,2.80
2018-12-05T01:12:40.960Z,2.80
2018-12-05T01:15:09.378Z,2.80
2018-12-05T01:17:43.679Z,2.70
2018-12-05T01:20:12.135Z,2.70
2018-12-05T01:22:40.570Z,2.70
2018-12-05T01:25:08.937Z,2.70
2018-12-05T01:27:37.368Z,2.60
2018-12-05T01:30:09.735Z,2.60
2018-12-05T01:32:41.614Z,2.60
2018-12-05T01:35:13.364Z,2.60
2018-12-05T01:37:47.555Z,2.60
2018-12-05T01:40:17.887Z,2.60
2018-12-05T01:42:49.530Z,2.60
2018-12-05T01:45:17.970Z,2.60
2018-12-05T01:47:54.542Z,2.60
2018-12-05T01:50:22.984Z,2.50
2018-12-05T01:52:51.444Z,2.50
2018-12-05T01:55:19.831Z,2.50
2018-12-05T01:57:48.237Z,2.50
2018-12-05T02:00:16.598Z,2.50
2018-12-05T02:02:45.050Z,2.50
2018-12-05T02:05:13.524Z,2.50
2018-12-05T02:07:41.880Z,2.50
2018-12-05T02:10:22.962Z,2.50
2018-12-05T02:12:51.336Z,2.50
2018-12-05T02:15:21.201Z,2.50
2018-12-05T02:17:49.638Z,2.50
2018-12-05T02:20:18.046Z,2.40
2018-12-05T02:22:46.420Z,2.40
2018-12-05T02:25:17.864Z,2.50
2018-12-05T02:27:46.236Z,2.50
2018-12-05T02:30:14.645Z,2.40
2018-12-05T02:32:43.066Z,2.50
2018-12-05T02:35:11.457Z,2.50
2018-12-05T02:37:39.886Z,2.50
2018-12-05T02:40:14.079Z,2.40
2018-12-05T02:42:42.531Z,2.40
2018-12-05T02:45:10.902Z,2.40
2018-12-05T02:47:39.273Z,2.30
2018-12-05T02:50:07.695Z,2.30
2018-12-05T02:52:36.070Z,2.30
2018-12-05T02:55:04.534Z,2.30
2018-12-05T02:57:32.894Z,2.30
2018-12-05T03:00:01.286Z,2.30
2018-12-05T03:02:31.653Z,2.30
2018-12-05T03:05:00.042Z,2.20
2018-12-05T03:07:28.436Z,2.30
2018-12-05T03:09:57.069Z,2.30
2018-12-05T03:12:25.460Z,2.40
2018-12-05T03:14:55.204Z,2.40
2018-12-05T03:17:23.640Z,2.40
2018-12-05T03:19:52.013Z,2.40
2018-12-05T03:22:20.458Z,2.50
2018-12-05T03:24:48.824Z,2.50
2018-12-05T03:27:17.204Z,2.50
2018-12-05T03:29:45.647Z,2.50
2018-12-05T03:32:14.003Z,2.60
2018-12-05T03:34:42.464Z,2.60
2018-12-05T03:37:16.626Z,2.60
2018-12-05T03:39:49.060Z,2.60
2018-12-05T03:42:20.641Z,2.60
2018-12-05T03:44:49.062Z,2.60
2018-12-05T03:47:17.422Z,2.60
2018-12-05T03:49:54.343Z,2.60
2018-12-05T03:52:22.740Z,2.60
2018-12-05T03:54:51.128Z,2.60
2018-12-05T03:57:22.730Z,2.60
2018-12-05T03:59:56.737Z,2.70
2018-12-05T04:02:31.410Z,2.60
2018-12-05T04:04:59.917Z,2.50
2018-12-05T04:07:28.293Z,2.50
2018-12-05T04:09:56.724Z,2.50
2018-12-05T04:12:25.104Z,2.60
2018-12-05T04:14:57.450Z,2.60
2018-12-05T04:17:29.780Z,2.50
2018-12-05T04:20:03.731Z,2.50
2018-12-05T04:22:44.751Z,2.50
2018-12-05T04:25:16.606Z,2.40
2018-12-05T04:27:44.971Z,2.40
2018-12-05T04:33:06.763Z,2.40
2018-12-05T04:35:35.127Z,2.40
2018-12-05T04:38:03.534Z,2.40
2018-12-05T04:40:31.938Z,2.40
2018-12-05T04:43:00.307Z,2.40
2018-12-05T04:45:28.770Z,2.50
2018-12-05T04:48:09.589Z,2.50
2018-12-05T04:50:41.351Z,2.50
2018-12-05T04:53:15.485Z,2.60
2018-12-05T04:55:43.852Z,2.60
2018-12-05T04:58:12.223Z,2.70
2018-12-05T05:00:40.674Z,2.70
2018-12-05T05:03:09.032Z,2.70
2018-12-05T05:05:37.397Z,2.70
2018-12-05T05:08:20.169Z,2.80
2018-12-05T05:10:48.539Z,2.70
2018-12-05T05:13:20.873Z,2.70
2018-12-05T05:15:49.245Z,2.60
2018-12-05T05:18:17.679Z,2.50
2018-12-05T05:20:46.153Z,2.40
2018-12-05T05:23:14.528Z,2.40
2018-12-05T05:25:42.940Z,2.40
2018-12-05T05:28:15.137Z,2.40
2018-12-05T05:30:43.511Z,2.40
2018-12-05T05:33:11.951Z,2.30
2018-12-05T05:35:40.411Z,2.20
2018-12-05T05:38:08.845Z,2.20
2018-12-05T05:40:43.323Z,2.10
2018-12-05T05:43:11.736Z,2.10
2018-12-05T05:45:40.521Z,2.10
2018-12-05T05:48:08.946Z,2.10
2018-12-05T05:50:37.451Z,2.20
2018-12-05T05:53:05.857Z,2.30
2018-12-05T05:55:34.253Z,2.30
2018-12-05T05:58:02.681Z,2.30
2018-12-05T06:00:31.059Z,2.40
2018-12-05T06:03:05.621Z,2.40
2018-12-05T06:05:46.799Z,2.50
2018-12-05T06:08:15.173Z,2.60
2018-12-05T06:10:43.609Z,2.60
2018-12-05T06:13:12.036Z,2.60
2018-12-05T06:15:43.506Z,2.60
2018-12-05T06:18:11.938Z,2.70
2018-12-05T06:20:40.313Z,2.70
2018-12-05T06:23:08.702Z,2.70
2018-12-05T06:25:55.215Z,2.70
2018-12-05T06:31:20.253Z,2.70
2018-12-05T06:33:48.631Z,2.70
2018-12-05T06:36:23.102Z,2.70
2018-12-05T06:38:51.510Z,2.70
2018-12-05T06:41:29.831Z,2.70
2018-12-05T06:43:58.219Z,2.80
2018-12-05T06:46:26.630Z,2.80
2018-12-05T06:48:55.064Z,2.80
2018-12-05T06:51:27.114Z,2.80
2018-12-05T06:54:01.075Z,2.80
2018-12-05T06:56:29.459Z,2.90
2018-12-05T06:58:57.847Z,2.90
2018-12-05T07:01:31.722Z,2.90
2018-12-05T07:04:06.173Z,2.90
2018-12-05T07:06:40.002Z,2.90
2018-12-05T07:09:09.445Z,3.00
2018-12-05T07:11:43.400Z,2.90
2018-12-05T07:14:11.849Z,2.90
2018-12-05T07:16:40.240Z,2.90
2018-12-05T07:19:12.185Z,2.90
2018-12-05T07:21:46.487Z,2.90
2018-12-05T07:24:23.138Z,2.90
2018-12-05T07:26:51.536Z,2.90
2018-12-05T07:29:19.901Z,2.90
2018-12-05T07:31:48.333Z,2.80
2018-12-05T07:34:20.547Z,2.80
2018-12-05T07:36:48.965Z,2.80
2018-12-05T07:39:17.326Z,2.80
2018-12-05T07:41:45.731Z,2.80
2018-12-05T07:44:14.169Z,2.90
2018-12-05T07:46:42.595Z,2.90
2018-12-05T07:49:14.550Z,3.00
2018-12-05T07:51:45.961Z,3.10
2018-12-05T07:54:14.447Z,3.20
2018-12-05T07:56:46.363Z,3.20
2018-12-05T07:59:18.517Z,3.30
2018-12-05T08:04:49.221Z,3.30
2018-12-05T08:07:17.599Z,3.40
2018-12-05T08:09:51.535Z,3.40
2018-12-05T08:12:21.676Z,3.40
2018-12-05T08:14:56.171Z,3.40
2018-12-05T08:17:24.539Z,3.50
2018-12-05T08:19:52.929Z,3.60
2018-12-05T08:22:21.358Z,3.60
2018-12-05T08:24:49.726Z,3.70
2018-12-05T08:27:18.113Z,3.60
2018-12-05T08:29:46.523Z,3.60
2018-12-05T08:32:14.938Z,3.70
2018-12-05T08:34:49.162Z,3.70
2018-12-05T08:37:17.524Z,3.80
2018-12-05T08:39:49.384Z,3.90
2018-12-05T08:42:17.824Z,3.90
2018-12-05T08:44:46.186Z,4.00
2018-12-05T08:47:14.613Z,4.10
2018-12-05T08:49:43.152Z,4.10
2018-12-05T08:52:11.535Z,4.10
2018-12-05T08:54:39.922Z,4.10
2018-12-05T08:57:08.372Z,4.10
2018-12-05T08:59:36.746Z,4.00
2018-12-05T09:02:23.026Z,4.10
2018-12-05T09:04:51.784Z,4.10
2018-12-05T09:07:20.220Z,4.20
2018-12-05T09:09:48.604Z,4.20
2018-12-05T09:12:17.018Z,4.20
2018-12-05T09:14:45.460Z,4.30
2018-12-05T09:17:19.633Z,4.30
2018-12-05T09:19:48.079Z,4.20
2018-12-05T09:22:16.461Z,4.20
2018-12-05T09:24:45.051Z,4.20
2018-12-05T09:27:13.527Z,4.20
2018-12-05T09:29:41.924Z,4.20
2018-12-05T09:32:10.286Z,4.30
2018-12-05T09:34:38.710Z,4.30
2018-12-05T09:37:10.470Z,4.40
2018-12-05T09:39:38.918Z,4.30
2018-12-05T09:42:07.343Z,4.40
2018-12-05T09:44:38.783Z,4.50
2018-12-05T09:47:15.900Z,4.50
2018-12-05T09:49:41.238Z,4.60
2018-12-05T09:52:13.465Z,4.60
2018-12-05T09:54:41.955Z,4.60
2018-12-05T09:57:10.339Z,4.60
2018-12-05T09:59:38.710Z,4.60
2018-12-05T10:02:07.130Z,4.60
2018-12-05T10:04:41.422Z,4.70
2018-12-05T10:07:09.861Z,4.70
2018-12-05T10:09:38.252Z,4.80
2018-12-05T10:12:10.175Z,4.90
2018-12-05T10:14:38.548Z,4.90
2018-12-05T10:17:06.921Z,5.00
2018-12-05T10:19:41.353Z,5.10
2018-12-05T10:22:09.717Z,5.30
2018-12-05T10:24:52.205Z,5.50
2018-12-05T10:27:23.906Z,5.50
2018-12-05T10:29:55.640Z,5.40
2018-12-05T10:32:24.006Z,5.50
2018-12-05T10:34:56.080Z,5.50
2018-12-05T10:37:24.452Z,5.40
2018-12-05T10:39:52.820Z,5.30
2018-12-05T10:42:24.276Z,5.30
2018-12-05T10:44:58.242Z,5.40
2018-12-05T10:47:26.670Z,5.40
2018-12-05T10:49:58.416Z,5.50
2018-12-05T10:52:32.429Z,5.60
2018-12-05T10:55:02.762Z,5.70
2018-12-05T10:57:36.990Z,5.70
2018-12-05T11:00:13.131Z,5.80
2018-12-05T11:02:46.865Z,5.80
2018-12-05T11:05:29.279Z,5.80
2018-12-05T11:08:03.054Z,5.80
2018-12-05T11:10:40.747Z,5.80
2018-12-05T11:13:19.301Z,5.90
2018-12-05T11:15:59.528Z,5.90
2018-12-05T11:18:36.623Z,5.90
2018-12-05T11:21:15.601Z,5.90
2018-12-05T11:24:58.020Z,5.90
2018-12-05T11:27:32.687Z,6.00
2018-12-05T11:30:07.669Z,6.00
2018-12-05T11:32:39.513Z,6.00
2018-12-05T11:35:13.668Z,6.00
2018-12-05T11:37:42.175Z,6.00
2018-12-05T11:40:16.197Z,6.00
2018-12-05T11:42:44.698Z,6.00
2018-12-05T11:45:13.199Z,6.00
2018-12-05T11:47:41.566Z,6.00
2018-12-05T11:50:16.036Z,5.90
2018-12-05T11:52:44.408Z,5.80
2018-12-05T11:55:12.852Z,5.80
2018-12-05T11:57:44.587Z,5.80
2018-12-05T12:00:19.953Z,5.90
2018-12-05T12:02:48.323Z,5.80
2018-12-05T12:05:20.673Z,5.80
2018-12-05T12:07:49.042Z,5.70
2018-12-05T12:10:19.558Z,5.70
2018-12-05T12:12:59.147Z,5.70
2018-12-05T12:15:27.533Z,5.70
2018-12-05T12:17:55.894Z,5.70
2018-12-05T12:23:28.148Z,5.70
2018-12-05T12:26:02.870Z,5.70
2018-12-05T12:28:36.643Z,5.70
2018-12-05T12:31:11.290Z,5.80
2018-12-05T12:33:43.402Z,5.80
2018-12-05T12:39:23.417Z,5.80
2018-12-05T12:41:57.867Z,5.80
2018-12-05T12:44:26.261Z,5.80
2018-12-05T12:47:00.101Z,5.90
2018-12-05T12:52:28.387Z,5.90
2018-12-05T12:54:56.781Z,5.80
2018-12-05T12:57:30.638Z,5.90
2018-12-05T12:59:59.147Z,5.90
2018-12-05T13:02:32.989Z,5.90
2018-12-05T13:05:01.434Z,5.90
2018-12-05T13:07:35.252Z,5.80
2018-12-05T13:10:09.901Z,5.80
2018-12-05T13:12:42.299Z,5.70
2018-12-05T13:15:16.502Z,5.60
2018-12-05T13:17:44.943Z,5.60
2018-12-05T13:20:19.044Z,5.60
2018-12-05T13:22:47.495Z,5.50
2018-12-05T13:25:21.346Z,5.40
2018-12-05T13:27:49.794Z,5.40
2018-12-05T13:30:18.174Z,5.40
2018-12-05T13:32:49.828Z,5.50
2018-12-05T13:35:18.267Z,5.40
2018-12-05T13:37:52.783Z,5.40
2018-12-05T13:40:21.218Z,5.40
2018-12-05T13:42:55.464Z,5.30
2018-12-05T13:45:27.600Z,5.30
2018-12-05T13:47:59.381Z,5.20
2018-12-05T13:50:33.373Z,5.30
2018-12-05T13:53:05.080Z,5.40
2018-12-05T13:58:35.730Z,5.40
2018-12-05T14:01:10.402Z,5.50
2018-12-05T14:03:44.471Z,5.60
2018-12-05T14:06:18.427Z,5.60
2018-12-05T14:08:46.830Z,5.60
2018-12-05T14:11:38.435Z,5.60
2018-12-05T14:14:12.312Z,5.50
2018-12-05T14:16:40.759Z,5.50
2018-12-05T14:19:09.135Z,5.60
2018-12-05T14:21:37.567Z,5.50
2018-12-05T14:24:05.958Z,5.50
2018-12-05T14:26:39.945Z,5.60
2018-12-05T14:29:23.169Z,5.60
2018-12-05T14:31:57.643Z,5.60
2018-12-05T14:34:32.387Z,5.60
2018-12-05T14:37:06.205Z,5.50
2018-12-05T14:39:40.043Z,5.60
2018-12-05T14:42:08.475Z,5.60
2018-12-05T14:44:36.837Z,5.60
2018-12-05T14:50:06.482Z,5.60
2018-12-05T14:52:38.777Z,5.60
2018-12-05T14:55:23.752Z,5.60
2018-12-05T14:57:57.935Z,5.60
2018-12-05T15:00:26.393Z,5.60
2018-12-05T15:02:54.779Z,5.60
2018-12-05T15:05:23.168Z,5.50
2018-12-05T15:07:51.629Z,5.50
2018-12-05T15:10:26.051Z,5.40
2018-12-05T15:12:54.517Z,5.40
2018-12-05T15:15:22.907Z,5.30
2018-12-05T15:17:54.985Z,5.30
2018-12-05T15:20:23.383Z,5.30
2018-12-05T15:22:51.763Z,5.30
2018-12-05T15:25:20.201Z,5.30
2018-12-05T15:27:48.625Z,5.30
2018-12-05T15:33:16.985Z,5.30
2018-12-05T15:35:45.447Z,5.30
2018-12-05T15:38:19.723Z,5.30
2018-12-05T15:43:45.514Z,5.20
2018-12-05T15:49:10.661Z,5.20
2018-12-05T15:51:39.065Z,5.20
2018-12-05T15:54:07.533Z,5.10
2018-12-05T15:56:41.473Z,5.10
2018-12-05T15:59:09.859Z,5.10
2018-12-05T16:01:41.305Z,5.10
2018-12-05T16:04:09.723Z,4.90
2018-12-05T16:06:38.150Z,4.90
2018-12-05T16:09:12.833Z,4.90
2018-12-05T16:11:41.303Z,4.90
2018-12-05T16:14:09.702Z,4.90
2018-12-05T16:16:38.105Z,5.00
2018-12-05T16:19:12.392Z,4.90
2018-12-05T16:21:40.778Z,4.90
2018-12-05T16:24:15.053Z,4.90
2018-12-05T16:26:43.458Z,4.90
2018-12-05T16:29:11.837Z,4.90
2018-12-05T16:31:40.293Z,4.90
2018-12-05T16:34:08.707Z,4.80
2018-12-05T16:36:37.148Z,4.80
2018-12-05T16:39:07.816Z,4.70
2018-12-05T16:41:37.098Z,4.60
2018-12-05T16:44:12.689Z,4.60
2018-12-05T16:46:35.974Z,4.50
2018-12-05T16:49:04.402Z,4.50
2018-12-05T16:51:32.830Z,4.50
2018-12-05T16:54:13.991Z,4.50
2018-12-05T16:56:42.376Z,4.50
2018-12-05T16:59:10.769Z,4.50
2018-12-05T17:01:39.232Z,4.50
2018-12-05T17:04:07.622Z,4.40
2018-12-05T17:06:36.005Z,4.50
2018-12-05T17:09:07.081Z,4.50
2018-12-05T17:11:35.478Z,4.50
2018-12-05T17:14:03.876Z,4.50
2018-12-05T17:16:32.365Z,4.60
2018-12-05T17:19:04.790Z,4.60
2018-12-05T17:21:36.352Z,4.60
2018-12-05T17:24:04.767Z,4.70
2018-12-05T17:26:33.153Z,4.70
2018-12-05T17:29:01.608Z,4.70
2018-12-05T17:31:30.021Z,4.70
2018-12-05T17:33:58.410Z,4.60
2018-12-05T17:36:26.945Z,4.70
2018-12-05T17:38:55.429Z,4.70
2018-12-05T17:41:26.907Z,4.70
2018-12-05T17:43:55.290Z,4.70
2018-12-05T17:46:23.684Z,4.70
2018-12-05T17:48:52.131Z,4.70
2018-12-05T17:51:20.616Z,4.70
2018-12-05T17:53:49.024Z,4.70
2018-12-05T17:56:17.426Z,4.70
2018-12-05T17:58:45.886Z,4.70
2018-12-05T18:01:14.286Z,4.70
2018-12-05T18:03:42.664Z,4.60
2018-12-05T18:06:11.136Z,4.60
2018-12-05T18:08:39.506Z,4.50
2018-12-05T18:11:07.930Z,4.50
2018-12-05T18:13:36.352Z,4.50
2018-12-05T18:16:04.746Z,4.50
2018-12-05T18:18:33.154Z,4.50
2018-12-05T18:21:01.621Z,4.50
2018-12-05T18:23:30.018Z,4.40
2018-12-05T18:25:58.412Z,4.40
2018-12-05T18:28:26.850Z,4.40
2018-12-05T18:30:55.250Z,4.50
2018-12-05T18:33:23.665Z,4.50
2018-12-05T18:35:52.116Z,4.50
2018-12-05T18:38:20.500Z,4.60
2018-12-05T18:40:48.962Z,4.60
2018-12-05T18:43:31.931Z,4.60
2018-12-05T18:46:00.439Z,4.60
2018-12-05T18:48:28.878Z,4.50
2018-12-05T18:50:57.300Z,4.50
2018-12-05T18:53:25.794Z,4.60
2018-12-05T18:58:25.698Z,4.60
2018-12-05T19:00:54.142Z,4.60
2018-12-05T19:03:22.591Z,4.60
2018-12-05T19:05:51.061Z,4.50
2018-12-05T19:11:17.115Z,4.50
2018-12-05T19:13:50.945Z,4.50
2018-12-05T19:16:19.387Z,4.50
2018-12-05T19:18:47.800Z,4.40
2018-12-05T19:21:20.299Z,4.40
2018-12-05T19:23:54.586Z,4.40
2018-12-05T19:26:23.059Z,4.30
2018-12-05T19:28:54.461Z,4.30
2018-12-05T19:31:22.923Z,4.20
2018-12-05T19:33:51.377Z,4.20
2018-12-05T19:36:19.803Z,4.20
2018-12-05T19:38:48.236Z,4.20
2018-12-05T19:41:16.725Z,4.20
2018-12-05T19:43:45.115Z,4.10
2018-12-05T19:46:13.525Z,4.10
2018-12-05T19:48:42.092Z,4.10
2018-12-05T19:51:10.507Z,4.00
2018-12-05T19:53:42.995Z,4.00
2018-12-05T19:56:11.478Z,4.10
2018-12-05T19:58:43.301Z,4.00
2018-12-05T20:01:12.340Z,4.00
2018-12-05T20:03:46.391Z,3.90
2018-12-05T20:06:18.549Z,3.90
2018-12-05T20:08:50.232Z,3.90
2018-12-05T20:11:18.635Z,3.90
2018-12-05T20:13:47.040Z,3.90
2018-12-05T20:16:15.508Z,4.00
2018-12-05T20:21:41.533Z,3.90
2018-12-05T20:24:10.039Z,3.90
2018-12-05T20:26:38.492Z,3.90
2018-12-05T20:29:06.883Z,3.90
2018-12-05T20:31:35.264Z,3.90
2018-12-05T20:34:09.512Z,3.90
2018-12-05T20:36:37.887Z,3.90
2018-12-05T20:39:10.669Z,3.90
2018-12-05T20:41:39.058Z,4.00
2018-12-05T20:44:07.445Z,3.90
2018-12-05T20:46:36.074Z,3.90
2018-12-05T20:49:04.590Z,3.90
2018-12-05T20:51:39.116Z,3.90
2018-12-05T20:54:14.582Z,3.90
2018-12-05T20:56:43.050Z,3.90
2018-12-05T20:59:11.461Z,3.80
2018-12-05T21:01:49.773Z,3.80
2018-12-05T21:04:21.664Z,3.80
2018-12-05T21:06:53.670Z,3.90
2018-12-05T21:09:27.711Z,3.90
2018-12-05T21:11:56.082Z,3.80
2018-12-05T21:14:24.468Z,3.80
2018-12-05T21:16:52.924Z,3.80
2018-12-05T21:19:21.313Z,3.80
2018-12-05T21:21:49.720Z,3.80
2018-12-05T21:24:34.144Z,3.80
2018-12-05T21:27:02.598Z,3.90
2018-12-05T21:29:31.005Z,3.80
2018-12-05T21:31:59.367Z,3.80
2018-12-05T21:34:30.837Z,3.80
2018-12-05T21:37:03.094Z,3.70
2018-12-05T21:39:31.560Z,3.70
2018-12-05T21:42:00.362Z,3.70
2018-12-05T21:44:28.750Z,3.70
2018-12-05T21:46:57.195Z,3.70
2018-12-05T21:52:22.565Z,3.70
2018-12-05T21:54:50.954Z,3.70
2018-12-05T21:57:19.338Z,3.60
2018-12-05T22:02:48.184Z,3.60
2018-12-05T22:05:16.632Z,3.60
2018-12-05T22:07:45.026Z,3.60
2018-12-05T22:10:19.788Z,3.60
2018-12-05T22:12:48.157Z,3.60
2018-12-05T22:15:16.527Z,3.60
2018-12-05T22:17:48.319Z,3.60
2018-12-05T22:20:16.691Z,3.60
2018-12-05T22:22:45.068Z,3.70
2018-12-05T22:25:13.544Z,3.70
2018-12-05T22:27:41.933Z,3.70
2018-12-05T22:30:13.495Z,3.80
2018-12-05T22:32:45.274Z,3.80
2018-12-05T22:35:17.049Z,3.80
2018-12-05T22:37:55.054Z,3.80
2018-12-05T22:40:23.548Z,3.70
2018-12-05T22:42:57.326Z,3.80
2018-12-05T22:45:31.295Z,3.70
2018-12-05T22:48:06.206Z,3.60
2018-12-05T22:50:38.066Z,3.60
2018-12-05T22:56:07.075Z,3.70
2018-12-05T22:58:41.484Z,3.70
2018-12-05T23:01:13.870Z,3.70
2018-12-05T23:06:39.738Z,3.70
2018-12-05T23:09:08.107Z,3.70
2018-12-05T23:11:42.802Z,3.70
2018-12-05T23:14:11.164Z,3.70
2018-12-05T23:16:43.908Z,3.70
2018-12-05T23:19:17.875Z,3.70
2018-12-05T23:21:46.324Z,3.60
2018-12-05T23:24:20.291Z,3.60
2018-12-05T23:26:48.712Z,3.60
2018-12-05T23:29:17.112Z,3.60
2018-12-05T23:34:46.510Z,3.60
2018-12-05T23:37:20.704Z,3.60
2018-12-05T23:39:49.128Z,3.50
2018-12-05T23:42:17.499Z,3.60
2018-12-05T23:44:51.648Z,3.60
2018-12-05T23:50:40.850Z,3.70
2018-12-05T23:53:14.921Z,3.70
2018-12-05T23:55:43.402Z,3.70
2018-12-05T23:58:14.833Z,3.80
